Time;durP1;ratioP1;P1;durP2;ratioP2;P2;SDS_P1;SDS_P2;PMS_P1;PMS_P2;Temp;Humidity;BMP_temperature;BMP_pressure;BME280_temperature;BME280_humidity;BME280_pressure;Samples;Min_cycle;Max_cycle;Signal;HPM_P1;HPM_P2
2021/04/03 00:01:52;;;;;;;27.60;17.67;;;16.70;64.20;;;;;;4997088;28;20033;-68
2021/04/03 00:04:18;;;;;;;26.02;17.95;;;16.70;64.10;;;;;;4996988;28;20061;-68
2021/04/03 00:06:43;;;;;;;27.20;18.17;;;16.70;64.30;;;;;;4996991;28;20060;-67
2021/04/03 00:09:09;;;;;;;28.17;19.17;;;16.60;64.30;;;;;;4997014;28;20113;-68
2021/04/03 00:11:35;;;;;;;25.60;19.15;;;16.60;64.40;;;;;;4996769;28;20031;-68
2021/04/03 00:14:00;;;;;;;29.27;18.17;;;16.50;65.00;;;;;;4996862;28;20609;-68
2021/04/03 00:16:26;;;;;;;27.52;18.20;;;16.50;64.80;;;;;;4996841;28;20022;-67
2021/04/03 00:18:52;;;;;;;22.95;17.48;;;16.50;64.70;;;;;;4996606;28;20467;-68
2021/04/03 00:21:17;;;;;;;23.50;17.33;;;16.50;64.70;;;;;;4996739;28;20160;-68
2021/04/03 00:23:43;;;;;;;21.73;16.85;;;16.40;65.30;;;;;;4996705;28;20022;-68
2021/04/03 00:26:10;;;;;;;21.98;15.95;;;16.40;64.70;;;;;;4996756;28;20034;-68
2021/04/03 00:28:36;;;;;;;22.83;15.10;;;16.40;64.50;;;;;;4978986;28;20397;-68
2021/04/03 00:31:01;;;;;;;21.67;15.80;;;16.40;64.50;;;;;;4979112;28;20029;-69
2021/04/03 00:33:27;;;;;;;21.55;14.48;;;16.40;65.90;;;;;;4996329;28;20094;-67
2021/04/03 00:35:53;;;;;;;19.55;13.60;;;16.40;65.20;;;;;;4996463;28;20379;-68
2021/04/03 00:38:18;;;;;;;14.98;12.27;;;16.40;65.30;;;;;;4996281;28;20022;-68
2021/04/03 00:40:47;;;;;;;17.45;10.90;;;16.40;64.80;;;;;;4996260;28;20436;-68
2021/04/03 00:43:17;;;;;;;16.95;10.90;;;16.50;64.70;;;;;;4996302;28;20022;-68
2021/04/03 00:45:44;;;;;;;15.68;10.07;;;16.50;64.50;;;;;;4996302;28;20033;-68
2021/04/03 00:48:11;;;;;;;18.30;10.68;;;16.60;64.50;;;;;;4996366;28;20036;-67
2021/04/03 00:50:40;;;;;;;13.93;9.82;;;16.60;64.10;;;;;;4996006;28;20050;-68
2021/04/03 00:53:06;;;;;;;12.05;9.93;;;16.60;64.00;;;;;;4995534;28;20022;-67
2021/04/03 00:55:33;;;;;;;17.17;10.70;;;16.60;63.90;;;;;;4995998;28;20525;-68
2021/04/03 00:57:59;;;;;;;17.63;10.50;;;16.60;63.80;;;;;;4994680;28;20486;-68
2021/04/03 01:00:25;;;;;;;14.95;9.88;;;16.70;63.80;;;;;;4993288;28;20034;-68
2021/04/03 01:02:50;;;;;;;11.43;9.98;;;16.70;63.60;;;;;;4993356;28;20383;-68
2021/04/03 01:05:19;;;;;;;12.20;9.20;;;16.70;63.40;;;;;;4994697;28;20034;-67
2021/04/03 01:07:45;;;;;;;15.57;8.68;;;16.70;63.60;;;;;;4995596;28;20030;-68
2021/04/03 01:10:18;;;;;;;11.25;8.57;;;16.70;63.70;;;;;;4995684;28;20045;-68
2021/04/03 01:12:52;;;;;;;13.32;8.60;;;16.60;63.80;;;;;;4995314;28;20461;-68
2021/04/03 01:15:32;;;;;;;14.23;8.07;;;16.70;63.90;;;;;;4995732;28;20475;-67
2021/04/03 01:18:01;;;;;;;12.55;7.80;;;16.60;63.70;;;;;;4995508;28;20019;-68
2021/04/03 01:20:53;;;;;;;14.90;7.60;;;16.70;64.00;;;;;;4995441;28;20379;-68
2021/04/03 01:23:46;;;;;;;10.55;7.32;;;16.70;63.70;;;;;;4995585;28;20026;-67
2021/04/03 01:26:33;;;;;;;10.95;6.82;;;16.70;63.60;;;;;;4995568;28;20022;-68
2021/04/03 01:29:01;;;;;;;13.00;7.93;;;16.70;63.40;;;;;;4995081;28;20038;-67
2021/04/03 01:31:29;;;;;;;18.35;7.75;;;16.70;63.70;;;;;;4995412;28;20054;-68
2021/04/03 01:33:57;;;;;;;13.90;7.95;;;16.70;63.80;;;;;;4995371;28;20085;-68
2021/04/03 01:36:24;;;;;;;10.43;6.80;;;16.70;63.90;;;;;;4995001;28;20070;-68
2021/04/03 01:39:07;;;;;;;12.68;7.30;;;16.80;63.80;;;;;;4995184;28;20030;-68
2021/04/03 01:41:35;;;;;;;13.38;7.30;;;16.80;63.90;;;;;;4995139;28;20037;-68
2021/04/03 01:44:03;;;;;;;11.82;6.97;;;16.80;63.40;;;;;;4994825;28;20034;-68
2021/04/03 01:46:35;;;;;;;10.95;6.72;;;16.80;64.00;;;;;;4995085;28;20054;-68
2021/04/03 01:49:06;;;;;;;10.77;7.25;;;16.80;63.80;;;;;;4994901;28;20043;-68
2021/04/03 01:51:33;;;;;;;14.48;7.93;;;16.80;64.50;;;;;;4994748;28;20454;-68
2021/04/03 01:53:59;;;;;;;25.00;9.60;;;16.80;65.60;;;;;;4994788;28;20030;-68
2021/04/03 01:56:26;;;;;;;33.90;9.98;;;16.70;69.10;;;;;;4994579;28;20501;-68
2021/04/03 01:58:52;;;;;;;12.98;8.50;;;16.70;70.60;;;;;;4994379;28;20128;-68
2021/04/03 02:01:19;;;;;;;14.65;9.05;;;16.60;70.80;;;;;;4994726;28;20475;-68
2021/04/03 02:03:46;;;;;;;11.43;8.55;;;16.50;70.80;;;;;;4994901;28;20168;-68
2021/04/03 02:06:12;;;;;;;12.10;9.07;;;16.50;72.50;;;;;;4993742;28;20026;-68
2021/04/03 02:08:40;;;;;;;13.15;8.13;;;16.50;71.40;;;;;;4994584;28;20034;-68
2021/04/03 02:11:07;;;;;;;12.60;7.28;;;16.50;70.30;;;;;;4994662;28;20487;-68
2021/04/03 02:13:34;;;;;;;9.80;7.50;;;16.40;69.20;;;;;;4994518;28;20030;-68
2021/04/03 02:16:01;;;;;;;10.75;7.72;;;16.30;69.10;;;;;;4976984;28;20113;-67
2021/04/03 02:18:30;;;;;;;8.25;5.97;;;16.20;70.10;;;;;;4994240;28;20026;-68
2021/04/03 02:21:07;;;;;;;8.63;5.57;;;16.20;69.40;;;;;;4994490;28;20034;-67
2021/04/03 02:23:34;;;;;;;6.97;5.50;;;16.20;67.60;;;;;;4994096;28;20364;-68
2021/04/03 02:26:00;;;;;;;6.60;5.13;;;16.10;68.10;;;;;;4994216;28;20036;-67
2021/04/03 02:28:26;;;;;;;6.22;5.03;;;16.00;67.90;;;;;;4994376;28;20034;-67
2021/04/03 02:30:53;;;;;;;8.15;5.75;;;16.00;67.80;;;;;;4994052;28;20453;-68
2021/04/03 02:33:19;;;;;;;8.93;6.00;;;15.90;69.30;;;;;;4994200;28;20109;-67
2021/04/03 02:35:45;;;;;;;9.68;6.45;;;15.80;69.70;;;;;;4976734;28;20376;-68
2021/04/03 02:38:13;;;;;;;8.80;5.18;;;15.70;70.70;;;;;;4994084;28;20109;-68
2021/04/03 02:40:39;;;;;;;5.35;4.80;;;15.70;70.10;;;;;;4994077;28;20390;-68
2021/04/03 02:43:31;;;;;;;9.88;5.20;;;15.70;69.20;;;;;;4994029;28;20026;-68
2021/04/03 02:46:03;;;;;;;5.93;4.60;;;15.60;68.40;;;;;;4994007;28;20031;-68
2021/04/03 02:48:36;;;;;;;6.78;4.95;;;15.60;67.00;;;;;;4993915;28;20030;-67
2021/04/03 02:51:03;;;;;;;6.35;4.63;;;15.60;66.00;;;;;;4993764;28;20050;-68
2021/04/03 02:53:31;;;;;;;5.80;4.10;;;15.50;66.10;;;;;;4993807;28;20022;-68
2021/04/03 02:56:00;;;;;;;4.75;3.63;;;15.40;65.50;;;;;;4993836;28;20054;-67
2021/04/03 02:58:30;;;;;;;3.78;3.28;;;15.40;65.70;;;;;;4993720;28;20058;-68
2021/04/03 03:00:58;;;;;;;3.97;2.80;;;15.30;65.60;;;;;;4993913;28;20026;-67
2021/04/03 03:03:25;;;;;;;3.05;2.70;;;15.30;65.20;;;;;;4993806;28;20038;-67
2021/04/03 03:05:57;;;;;;;4.85;2.83;;;15.20;65.10;;;;;;4993864;28;20044;-68
2021/04/03 03:08:24;;;;;;;4.43;2.20;;;15.20;65.10;;;;;;4993647;28;20030;-67
2021/04/03 03:10:51;;;;;;;4.55;1.90;;;15.20;64.30;;;;;;4993926;28;20438;-67
2021/04/03 03:13:20;;;;;;;3.83;2.10;;;15.20;63.50;;;;;;4976516;28;20360;-68
2021/04/03 03:15:47;;;;;;;2.78;2.13;;;15.20;64.30;;;;;;4993297;28;20479;-68
2021/04/03 03:18:15;;;;;;;2.88;1.80;;;15.10;64.10;;;;;;4993875;28;20024;-68
2021/04/03 03:20:42;;;;;;;2.58;1.20;;;15.10;64.50;;;;;;4993619;28;20479;-67
2021/04/03 03:23:11;;;;;;;3.13;1.50;;;15.10;64.30;;;;;;4993740;28;20375;-68
2021/04/03 03:25:36;;;;;;;1.73;1.30;;;15.00;63.70;;;;;;4993939;28;20030;-68
2021/04/03 03:28:02;;;;;;;2.03;1.23;;;14.90;63.90;;;;;;4993541;28;20501;-68
2021/04/03 03:30:29;;;;;;;2.10;0.80;;;14.90;63.40;;;;;;4993641;28;20037;-68
2021/04/03 03:32:55;;;;;;;1.40;0.80;;;14.90;62.80;;;;;;4993608;28;20105;-67
2021/04/03 03:35:21;;;;;;;2.05;0.93;;;14.80;62.50;;;;;;4994041;28;20103;-68
2021/04/03 03:37:48;;;;;;;1.75;1.00;;;14.70;62.30;;;;;;4993573;28;20023;-68
2021/04/03 03:40:15;;;;;;;2.30;0.93;;;14.80;62.10;;;;;;4993393;28;20062;-68
2021/04/03 03:42:42;;;;;;;0.88;0.70;;;14.70;62.40;;;;;;4993420;28;20383;-68
2021/04/03 03:45:10;;;;;;;1.30;0.90;;;14.70;62.20;;;;;;4993507;28;20494;-68
2021/04/03 03:47:36;;;;;;;2.42;0.70;;;14.60;62.00;;;;;;4993331;28;20030;-68
2021/04/03 03:50:03;;;;;;;1.20;1.00;;;14.60;61.90;;;;;;4993286;28;20054;-68
2021/04/03 03:52:29;;;;;;;1.83;0.90;;;14.60;61.90;;;;;;4993536;28;20029;-67
2021/04/03 03:54:54;;;;;;;1.67;0.98;;;14.60;62.10;;;;;;4993454;28;20030;-68
2021/04/03 03:57:20;;;;;;;1.30;0.82;;;14.50;60.90;;;;;;4993399;28;20029;-68
2021/04/03 03:59:46;;;;;;;1.50;1.10;;;14.50;61.00;;;;;;4993376;28;20034;-67
2021/04/03 04:02:11;;;;;;;3.15;1.23;;;14.40;60.20;;;;;;4993412;28;20026;-68
2021/04/03 04:04:37;;;;;;;2.22;1.20;;;14.40;61.20;;;;;;4993446;28;20022;-67
2021/04/03 04:07:03;;;;;;;2.17;1.65;;;14.40;60.80;;;;;;4993312;28;20394;-68
2021/04/03 04:09:30;;;;;;;1.50;1.08;;;14.50;60.60;;;;;;4992844;28;20042;-67
2021/04/03 04:11:56;;;;;;;4.70;1.35;;;14.40;60.00;;;;;;4993188;28;20434;-68
2021/04/03 04:14:21;;;;;;;2.50;1.15;;;14.40;59.90;;;;;;4993255;28;20030;-68
2021/04/03 04:16:47;;;;;;;2.67;1.40;;;14.30;60.10;;;;;;4993360;28;20022;-67
2021/04/03 04:19:13;;;;;;;3.75;1.45;;;14.30;60.10;;;;;;4993319;28;20475;-67
2021/04/03 04:21:39;;;;;;;2.92;1.85;;;14.30;59.70;;;;;;4993300;28;20054;-67
2021/04/03 04:24:05;;;;;;;2.90;1.65;;;14.30;60.40;;;;;;4992953;28;20030;-68
2021/04/03 04:26:31;;;;;;;2.80;1.52;;;;;;;;;;4992857;28;20027;-68
2021/04/03 04:28:56;;;;;;;3.92;1.58;;;14.20;59.70;;;;;;4994917;28;20101;-68
2021/04/03 04:31:22;;;;;;;1.55;1.30;;;14.30;59.80;;;;;;4996780;28;20026;-68
2021/04/03 04:33:48;;;;;;;3.10;1.50;;;14.20;59.50;;;;;;4996686;28;20050;-68
2021/04/03 04:36:14;;;;;;;2.05;1.40;;;14.20;59.20;;;;;;4996814;28;20034;-68
2021/04/03 04:38:40;;;;;;;3.17;1.42;;;14.20;59.10;;;;;;4996550;28;20037;-68
2021/04/03 04:41:05;;;;;;;2.40;1.50;;;14.20;58.90;;;;;;4996227;28;20475;-68
2021/04/03 04:43:31;;;;;;;2.78;1.63;;;14.10;59.40;;;;;;4996496;28;20371;-68
2021/04/03 04:45:57;;;;;;;4.35;1.65;;;14.10;58.80;;;;;;4996490;28;20031;-67
2021/04/03 04:48:22;;;;;;;4.20;1.40;;;14.10;58.10;;;;;;4996202;28;20468;-68
2021/04/03 04:50:48;;;;;;;3.08;1.33;;;14.10;58.30;;;;;;4996037;28;20129;-68
2021/04/03 04:53:14;;;;;;;1.92;1.30;;;14.00;57.60;;;;;;4996312;28;20395;-68
2021/04/03 04:55:39;;;;;;;4.57;1.50;;;14.00;58.00;;;;;;4995966;28;20470;-67
2021/04/03 04:58:05;;;;;;;6.28;1.90;;;14.00;58.40;;;;;;4996279;28;20029;-67
2021/04/03 05:00:31;;;;;;;3.78;1.98;;;14.00;57.50;;;;;;4996100;28;20415;-68
2021/04/03 05:02:56;;;;;;;3.95;1.98;;;14.00;57.70;;;;;;4996256;28;20435;-67
2021/04/03 05:05:22;;;;;;;4.55;1.80;;;14.00;57.70;;;;;;4996134;28;20486;-67
2021/04/03 05:07:48;;;;;;;2.90;1.52;;;14.00;57.60;;;;;;4995714;28;20080;-68
2021/04/03 05:10:14;;;;;;;3.85;1.98;;;14.00;57.50;;;;;;4995738;28;20065;-68
2021/04/03 05:12:39;;;;;;;4.10;1.83;;;14.00;57.00;;;;;;4996222;28;20110;-68
2021/04/03 05:15:06;;;;;;;3.38;2.25;;;14.00;56.90;;;;;;4995999;28;20372;-68
2021/04/03 05:17:32;;;;;;;4.25;1.80;;;14.00;57.00;;;;;;4995841;28;20470;-68
2021/04/03 05:19:58;;;;;;;3.10;1.70;;;14.00;56.90;;;;;;4995567;28;20034;-67
2021/04/03 05:22:23;;;;;;;5.30;1.52;;;13.90;56.70;;;;;;4995990;28;20027;-68
2021/04/03 05:24:49;;;;;;;3.05;1.83;;;13.90;56.90;;;;;;4995816;28;20552;-68
2021/04/03 05:27:15;;;;;;;3.28;1.25;;;13.90;57.70;;;;;;4995777;28;20027;-68
2021/04/03 05:29:41;;;;;;;2.45;1.40;;;13.80;57.50;;;;;;4995447;28;20113;-68
2021/04/03 05:32:07;;;;;;;2.95;1.35;;;13.80;57.30;;;;;;4995633;28;20451;-67
2021/04/03 05:34:33;;;;;;;2.17;1.40;;;13.80;58.00;;;;;;4995415;28;20026;-68
2021/04/03 05:36:59;;;;;;;2.28;1.30;;;13.80;58.10;;;;;;4995424;28;20464;-68
2021/04/03 05:39:24;;;;;;;4.72;1.00;;;13.80;57.40;;;;;;4995000;28;20037;-67
2021/04/03 05:41:50;;;;;;;2.65;1.00;;;13.80;57.50;;;;;;4995269;28;20030;-67
2021/04/03 05:44:21;;;;;;;1.23;0.90;;;13.80;57.60;;;;;;4995404;28;20081;-68
2021/04/03 05:46:48;;;;;;;2.35;1.15;;;13.80;58.50;;;;;;4995220;28;20537;-67
2021/04/03 05:49:14;;;;;;;2.70;1.00;;;13.80;57.90;;;;;;4995058;28;20053;-68
2021/04/03 05:51:40;;;;;;;3.13;1.30;;;13.70;57.70;;;;;;4994907;28;20073;-68
2021/04/03 05:54:06;;;;;;;4.13;1.27;;;13.80;58.00;;;;;;4995344;28;20471;-68
2021/04/03 05:56:32;;;;;;;2.25;1.48;;;13.80;58.20;;;;;;4995170;28;20391;-68
2021/04/03 05:58:57;;;;;;;5.35;1.40;;;13.80;58.20;;;;;;4994721;28;20030;-68
2021/04/03 06:01:24;;;;;;;3.60;1.30;;;13.80;57.40;;;;;;4994857;28;20117;-68
2021/04/03 06:03:49;;;;;;;1.98;1.30;;;13.90;57.70;;;;;;4994812;28;20026;-68
2021/04/03 06:06:16;;;;;;;3.20;1.35;;;13.90;57.40;;;;;;4994959;28;20030;-68
2021/04/03 06:08:42;;;;;;;4.43;1.60;;;13.90;57.00;;;;;;4994367;28;20042;-67
2021/04/03 06:11:21;;;;;;;3.13;1.70;;;13.90;56.90;;;;;;4994633;28;20030;-67
2021/04/03 06:13:56;;;;;;;2.97;1.88;;;13.90;56.90;;;;;;4994584;28;20026;-68
2021/04/03 06:16:37;;;;;;;5.75;2.17;;;13.90;57.90;;;;;;4994402;28;20034;-67
2021/04/03 06:19:16;;;;;;;8.40;3.17;;;13.90;56.50;;;;;;4994506;28;20106;-67
2021/04/03 06:21:45;;;;;;;4.95;2.28;;;14.00;56.30;;;;;;4994300;28;20022;-67
2021/04/03 06:24:32;;;;;;;6.25;2.60;;;14.00;56.80;;;;;;4994453;28;20053;-70
2021/04/03 06:27:17;;;;;;;3.85;2.55;;;14.10;55.70;;;;;;4994334;28;20029;-72
2021/04/03 06:29:48;;;;;;;7.57;2.45;;;14.10;55.30;;;;;;4993976;28;20443;-68
2021/04/03 06:32:18;;;;;;;9.18;3.05;;;14.10;55.20;;;;;;4993482;28;20057;-67
2021/04/03 06:34:54;;;;;;;7.68;3.10;;;14.10;55.60;;;;;;4992868;28;20376;-68
2021/04/03 06:37:34;;;;;;;5.47;3.10;;;14.20;54.90;;;;;;4993024;28;20030;-68
2021/04/03 06:40:11;;;;;;;5.45;3.30;;;14.20;55.10;;;;;;5004176;28;20096;-68
2021/04/03 06:42:56;;;;;;;3.85;3.10;;;14.30;54.50;;;;;;5013399;28;20064;-67
2021/04/03 06:45:32;;;;;;;8.88;3.30;;;14.30;55.20;;;;;;4933569;28;20482;-70
2021/04/03 06:48:06;;;;;;;7.45;3.90;;;14.30;54.60;;;;;;4999739;28;20022;-72
2021/04/03 06:50:46;;;;;;;8.38;3.65;;;14.40;54.90;;;;;;5011584;28;20049;-68
2021/04/03 06:53:18;;;;;;;4.85;3.50;;;14.40;55.10;;;;;;5012926;28;20034;-69
2021/04/03 06:55:46;;;;;;;6.80;3.92;;;14.40;54.30;;;;;;5012655;28;20033;-68
2021/04/03 06:58:13;;;;;;;9.30;3.75;;;14.50;55.50;;;;;;5013333;28;20030;-70
2021/04/03 07:00:39;;;;;;;7.43;3.45;;;14.50;54.90;;;;;;5013225;28;20121;-71
2021/04/03 07:03:12;;;;;;;7.18;3.80;;;14.60;54.10;;;;;;5013279;28;20088;-72
2021/04/03 07:05:38;;;;;;;8.35;3.53;;;14.60;53.20;;;;;;5013064;28;20022;-70
2021/04/03 07:08:06;;;;;;;5.60;3.22;;;14.60;53.60;;;;;;5013106;28;20022;-70
2021/04/03 07:10:36;;;;;;;6.22;3.20;;;14.70;53.60;;;;;;5013063;28;20034;-70
2021/04/03 07:13:02;;;;;;;6.13;3.00;;;14.70;53.30;;;;;;5013464;28;20466;-69
2021/04/03 07:15:29;;;;;;;4.63;3.20;;;14.80;52.20;;;;;;5013731;28;20041;-71
2021/04/03 07:17:55;;;;;;;8.80;3.60;;;14.80;53.00;;;;;;5013000;28;20022;-72
2021/04/03 07:20:24;;;;;;;7.45;3.35;;;14.90;52.20;;;;;;5011797;28;20441;-70
2021/04/03 07:23:03;;;;;;;5.05;3.30;;;14.90;52.70;;;;;;5013162;28;20057;-70
2021/04/03 07:25:34;;;;;;;6.03;3.55;;;15.00;53.10;;;;;;5012871;28;20383;-70
2021/04/03 07:28:00;;;;;;;5.63;3.22;;;15.00;51.80;;;;;;5012792;28;20395;-70
2021/04/03 07:30:34;;;;;;;6.18;2.67;;;15.00;51.70;;;;;;5012691;28;20045;-70
2021/04/03 07:33:07;;;;;;;5.22;2.97;;;15.10;52.80;;;;;;5013022;28;20033;-71
2021/04/03 07:35:53;;;;;;;;;;;15.10;51.80;;;;;;5013631;28;20045;-71
2021/04/03 07:38:26;;;;;;;13.35;3.72;;;15.20;51.60;;;;;;5012663;28;19910;-71
2021/04/03 07:40:53;;;;;;;4.90;3.00;;;15.30;52.40;;;;;;5012728;28;20087;-73
2021/04/03 07:43:44;;;;;;;6.32;2.97;;;15.40;49.70;;;;;;5011761;28;20064;-71
2021/04/03 07:46:13;;;;;;;3.95;2.83;;;15.40;50.10;;;;;;5012252;28;20034;-71
2021/04/03 07:48:38;;;;;;;4.80;3.00;;;15.50;50.50;;;;;;5012555;28;20156;-70
2021/04/03 07:51:06;;;;;;;5.55;2.85;;;15.50;50.20;;;;;;5012756;28;20077;-71
2021/04/03 07:53:35;;;;;;;6.80;2.85;;;;;;;;;;5012961;28;20026;-71
2021/04/03 07:56:02;;;;;;;5.10;3.00;;;15.60;49.10;;;;;;5012772;28;20479;-71
2021/04/03 07:58:33;;;;;;;4.78;2.47;;;15.70;49.40;;;;;;5012689;28;20022;-71
2021/04/03 08:01:02;;;;;;;6.38;2.67;;;15.80;48.80;;;;;;5012584;28;20037;-71
2021/04/03 08:03:29;;;;;;;8.95;2.45;;;;;;;;;;5013835;28;20026;-71
2021/04/03 08:06:06;;;;;;;2.85;2.15;;;15.90;48.10;;;;;;5015596;28;20097;-71
2021/04/03 08:08:34;;;;;;;5.60;2.88;;;15.90;48.70;;;;;;5016302;28;20386;-71
2021/04/03 08:11:08;;;;;;;4.93;2.60;;;16.00;47.80;;;;;;5016517;28;20066;-70
2021/04/03 08:13:40;;;;;;;5.50;2.97;;;16.00;48.10;;;;;;5016516;28;20028;-71
2021/04/03 08:16:07;;;;;;;;;;;16.10;48.20;;;;;;5016631;28;20030;-72
2021/04/03 08:18:34;;;;;;;5.05;3.22;;;16.10;48.20;;;;;;5016064;28;19910;-71
2021/04/03 08:21:00;;;;;;;5.03;3.00;;;;;;;;;;5016204;28;20018;-70
2021/04/03 08:23:49;;;;;;;7.43;2.92;;;16.30;78.40;;;;;;5015994;28;20034;-70
2021/04/03 08:26:21;;;;;;;6.55;2.78;;;16.30;44.80;;;;;;5016436;28;20062;-70
2021/04/03 08:28:47;;;;;;;3.88;2.83;;;16.30;45.90;;;;;;5015903;28;20155;-73
2021/04/03 08:31:23;;;;;;;4.75;2.65;;;16.30;47.10;;;;;;5016477;28;20034;-72
2021/04/03 08:33:55;;;;;;;7.15;3.13;;;16.30;45.70;;;;;;5016126;28;20037;-70
2021/04/03 08:36:27;;;;;;;5.63;2.97;;;16.40;46.10;;;;;;5016094;28;20026;-71
2021/04/03 08:38:54;;;;;;;6.60;2.78;;;16.40;45.30;;;;;;5015746;28;20038;-71
2021/04/03 08:41:24;;;;;;;4.95;3.10;;;16.40;44.50;;;;;;5015462;28;20025;-71
2021/04/03 08:43:51;;;;;;;5.80;2.90;;;;;;;;;;5015876;28;20025;-71
2021/04/03 08:46:18;;;;;;;4.40;2.70;;;16.50;43.70;;;;;;5015761;28;20116;-71
2021/04/03 08:48:46;;;;;;;3.60;2.72;;;16.60;44.80;;;;;;5015651;28;20125;-71
2021/04/03 08:51:13;;;;;;;3.65;2.83;;;16.70;44.50;;;;;;5015689;28;20495;-70
2021/04/03 08:53:49;;;;;;;8.15;2.78;;;16.70;44.90;;;;;;5015765;28;20109;-73
2021/04/03 08:56:25;;;;;;;4.03;3.10;;;16.80;45.50;;;;;;5015982;28;20080;-71
2021/04/03 08:58:51;;;;;;;4.28;2.60;;;16.80;43.10;;;;;;5015588;28;20501;-70
2021/04/03 09:01:19;;;;;;;7.50;2.97;;;16.90;43.20;;;;;;5015661;28;20073;-70
2021/04/03 09:03:48;;;;;;;4.50;2.75;;;16.90;44.30;;;;;;5015572;28;20386;-70
2021/04/03 09:06:13;;;;;;;4.95;2.17;;;16.90;44.00;;;;;;5015629;28;20026;-70
2021/04/03 09:08:39;;;;;;;9.13;2.30;;;17.00;42.00;;;;;;5014977;28;20105;-71
2021/04/03 09:11:05;;;;;;;5.30;2.70;;;17.00;38.80;;;;;;5015727;28;20026;-71
2021/04/03 09:13:36;;;;;;;6.80;2.10;;;17.10;41.40;;;;;;5015178;28;20064;-70
2021/04/03 09:16:15;;;;;;;3.88;2.10;;;17.20;42.90;;;;;;5014790;28;20029;-71
2021/04/03 09:18:44;;;;;;;3.75;2.25;;;17.30;40.80;;;;;;5015192;28;20022;-70
2021/04/03 09:21:20;;;;;;;3.30;2.35;;;17.40;41.00;;;;;;5015365;28;20419;-70
2021/04/03 09:23:50;;;;;;;2.75;1.90;;;17.50;42.30;;;;;;5015368;28;20049;-71
2021/04/03 09:26:28;;;;;;;4.38;2.50;;;17.60;41.80;;;;;;5015482;28;20056;-71
2021/04/03 09:29:06;;;;;;;3.03;2.20;;;17.60;41.50;;;;;;5014811;28;20026;-71
2021/04/03 09:32:02;;;;;;;4.13;2.03;;;17.60;41.40;;;;;;5014988;28;20025;-71
2021/04/03 09:34:33;;;;;;;9.65;2.95;;;17.70;39.60;;;;;;5014757;28;20030;-71
2021/04/03 09:37:15;;;;;;;3.38;2.28;;;17.80;40.50;;;;;;5015293;28;20053;-71
2021/04/03 09:39:42;;;;;;;;;;;17.80;41.50;;;;;;5015491;28;20026;-74
2021/04/03 09:42:12;;;;;;;5.53;2.33;;;17.90;38.70;;;;;;5014984;28;19944;-75
2021/04/03 09:44:38;;;;;;;4.05;2.15;;;17.90;38.00;;;;;;5014813;28;20025;-72
2021/04/03 09:47:04;;;;;;;3.60;1.90;;;18.00;38.70;;;;;;5014824;28;20033;-70
2021/04/03 09:49:29;;;;;;;2.95;2.10;;;18.10;39.10;;;;;;5014562;28;20072;-71
2021/04/03 09:51:57;;;;;;;4.95;1.90;;;18.20;39.30;;;;;;5014930;28;20446;-75
2021/04/03 09:54:23;;;;;;;7.60;2.15;;;18.30;40.10;;;;;;5014786;28;20052;-70
2021/04/03 09:56:49;;;;;;;3.90;1.95;;;18.30;36.20;;;;;;5014415;28;20026;-74
2021/04/03 09:59:14;;;;;;;5.10;1.83;;;18.40;36.30;;;;;;5014492;28;20032;-70
2021/04/03 10:01:40;;;;;;;5.38;1.70;;;18.40;36.00;;;;;;5014606;28;20022;-71
2021/04/03 10:04:06;;;;;;;4.43;2.30;;;18.50;37.20;;;;;;5014314;28;20022;-73
2021/04/03 10:06:31;;;;;;;3.33;2.10;;;18.60;36.50;;;;;;5013878;28;20029;-71
2021/04/03 10:08:57;;;;;;;2.97;1.98;;;18.60;35.40;;;;;;4994359;28;20033;-72
2021/04/03 10:11:23;;;;;;;11.57;2.20;;;18.70;35.50;;;;;;4977167;28;20042;-70
2021/04/03 10:13:50;;;;;;;10.13;2.42;;;18.70;35.40;;;;;;4994977;28;20367;-71
2021/04/03 10:16:16;;;;;;;2.60;1.80;;;18.80;34.90;;;;;;4994797;28;20030;-74
2021/04/03 10:18:42;;;;;;;5.28;1.90;;;18.80;35.40;;;;;;4994667;28;20033;-71
2021/04/03 10:21:09;;;;;;;5.43;2.20;;;18.90;35.10;;;;;;4994445;28;20480;-70
2021/04/03 10:23:35;;;;;;;3.15;1.52;;;18.90;35.60;;;;;;4994493;28;20549;-71
2021/04/03 10:26:01;;;;;;;7.63;1.80;;;19.00;35.20;;;;;;4992173;28;20030;-71
2021/04/03 10:28:26;;;;;;;4.65;1.70;;;19.10;35.70;;;;;;4991631;28;20121;-71
2021/04/03 10:30:52;;;;;;;2.75;1.38;;;19.20;33.30;;;;;;4991545;28;20474;-71
2021/04/03 10:33:18;;;;;;;3.60;1.95;;;19.20;32.30;;;;;;4993256;28;20387;-71
2021/04/03 10:35:44;;;;;;;3.00;1.40;;;19.30;33.00;;;;;;4994693;28;20030;-71
2021/04/03 10:38:10;;;;;;;4.72;1.70;;;19.40;33.30;;;;;;4994401;28;20027;-71
2021/04/03 10:40:35;;;;;;;3.13;1.52;;;19.40;33.10;;;;;;4993356;28;20068;-71
2021/04/03 10:43:01;;;;;;;2.28;1.40;;;19.50;34.20;;;;;;4975561;28;20479;-70
2021/04/03 10:45:27;;;;;;;4.15;1.98;;;19.50;33.50;;;;;;4992325;28;20018;-71
2021/04/03 10:47:53;;;;;;;4.15;1.65;;;19.60;32.60;;;;;;4993278;28;20456;-71
2021/04/03 10:50:19;;;;;;;3.03;1.80;;;19.60;31.50;;;;;;4993957;28;20046;-75
2021/04/03 10:52:45;;;;;;;2.65;1.67;;;19.60;31.20;;;;;;4993975;28;20030;-70
2021/04/03 10:55:11;;;;;;;2.70;1.60;;;19.60;32.90;;;;;;4992311;28;20030;-70
2021/04/03 10:57:37;;;;;;;12.10;2.05;;;19.70;32.10;;;;;;4990480;28;20533;-70
2021/04/03 11:00:05;;;;;;;4.05;1.90;;;19.70;30.30;;;;;;4990523;28;20026;-70
2021/04/03 11:02:30;;;;;;;6.10;1.67;;;19.70;31.40;;;;;;4993540;28;20030;-70
2021/04/03 11:04:56;;;;;;;3.45;1.73;;;19.80;31.60;;;;;;4992218;28;20027;-71
2021/04/03 11:07:22;;;;;;;2.72;1.40;;;19.80;31.60;;;;;;4993119;28;20069;-71
2021/04/03 11:09:48;;;;;;;2.22;1.70;;;19.90;29.80;;;;;;4993045;28;20038;-71
2021/04/03 11:12:15;;;;;;;4.15;2.05;;;20.00;31.50;;;;;;4993162;28;20383;-76
2021/04/03 11:14:41;;;;;;;4.93;1.90;;;20.10;31.40;;;;;;4993277;28;20037;-71
2021/04/03 11:17:07;;;;;;;3.90;1.60;;;20.10;33.50;;;;;;4993419;28;20364;-75
2021/04/03 11:19:33;;;;;;;3.17;2.00;;;20.20;33.00;;;;;;4993566;28;20093;-72
2021/04/03 11:21:59;;;;;;;9.35;1.95;;;20.30;31.60;;;;;;4993287;28;20416;-70
2021/04/03 11:24:25;;;;;;;2.03;1.40;;;20.30;30.80;;;;;;4993272;28;20395;-71
2021/04/03 11:26:51;;;;;;;3.50;1.70;;;20.30;31.60;;;;;;4993854;28;20368;-71
2021/04/03 11:29:17;;;;;;;1.80;1.45;;;20.30;30.80;;;;;;4993557;28;20034;-70
2021/04/03 11:31:43;;;;;;;4.00;1.80;;;20.20;30.50;;;;;;4993744;28;20598;-71
2021/04/03 11:34:08;;;;;;;3.72;1.70;;;20.20;30.50;;;;;;4993470;28;20097;-69
2021/04/03 11:36:34;;;;;;;9.40;2.20;;;20.20;31.80;;;;;;4993522;28;20027;-74
2021/04/03 11:39:00;;;;;;;2.65;1.60;;;20.30;31.90;;;;;;4997412;28;20037;-70
2021/04/03 11:41:26;;;;;;;3.75;1.80;;;20.30;31.40;;;;;;4997446;28;20022;-69
2021/04/03 11:43:51;;;;;;;3.88;1.48;;;20.30;30.00;;;;;;4996181;28;20026;-70
2021/04/03 11:46:17;;;;;;;3.53;1.40;;;20.30;30.80;;;;;;4996594;28;20026;-70
2021/04/03 11:48:43;;;;;;;3.90;1.40;;;20.30;30.60;;;;;;4996803;28;20125;-70
2021/04/03 11:51:10;;;;;;;5.82;1.63;;;20.30;28.90;;;;;;4997150;28;20058;-69
2021/04/03 11:53:36;;;;;;;2.00;1.25;;;20.30;29.30;;;;;;4994789;28;20041;-70
2021/04/03 11:56:02;;;;;;;3.85;1.40;;;20.30;29.70;;;;;;4993453;28;20077;-71
2021/04/03 11:58:29;;;;;;;3.05;1.60;;;20.30;29.30;;;;;;4993705;28;20034;-72
2021/04/03 12:00:54;;;;;;;2.67;1.65;;;20.40;29.80;;;;;;4993056;28;20034;-72
2021/04/03 12:03:20;;;;;;;5.07;1.83;;;20.50;29.90;;;;;;4995057;28;20037;-71
2021/04/03 12:05:46;;;;;;;3.50;1.48;;;20.50;30.50;;;;;;4997198;28;20038;-72
2021/04/03 12:08:11;;;;;;;6.10;1.40;;;20.60;30.00;;;;;;4979341;28;20046;-72
2021/04/03 12:10:37;;;;;;;2.13;1.10;;;20.60;30.00;;;;;;4996648;28;20100;-72
2021/04/03 12:13:03;;;;;;;5.07;1.20;;;20.70;29.30;;;;;;4996487;28;20069;-72
2021/04/03 12:15:29;;;;;;;4.82;1.40;;;20.70;29.30;;;;;;4996802;28;20054;-71
2021/04/03 12:17:54;;;;;;;2.20;1.10;;;20.70;28.60;;;;;;4996535;28;20089;-71
2021/04/03 12:20:20;;;;;;;2.92;1.70;;;20.60;28.30;;;;;;4995396;28;20030;-73
2021/04/03 12:22:46;;;;;;;2.42;1.38;;;20.60;29.20;;;;;;4994851;28;20037;-71
2021/04/03 12:25:13;;;;;;;3.22;1.60;;;20.60;29.70;;;;;;4992267;28;20042;-71
2021/04/03 12:27:40;;;;;;;3.00;1.70;;;20.60;30.00;;;;;;4992596;28;20030;-73
2021/04/03 12:30:06;;;;;;;4.68;1.40;;;20.60;30.10;;;;;;4995168;28;20046;-71
2021/04/03 12:32:33;;;;;;;2.88;1.50;;;20.50;30.50;;;;;;4996379;28;20014;-72
2021/04/03 12:34:59;;;;;;;6.93;1.70;;;20.50;31.00;;;;;;4996529;28;20031;-75
2021/04/03 12:37:25;;;;;;;3.03;1.80;;;20.40;31.50;;;;;;4996469;28;20049;-72
2021/04/03 12:39:50;;;;;;;4.88;1.60;;;20.40;31.90;;;;;;4996261;28;20034;-73
2021/04/03 12:42:16;;;;;;;1.98;1.40;;;20.40;32.20;;;;;;4996076;28;20073;-72
2021/04/03 12:44:42;;;;;;;5.13;1.63;;;20.40;32.70;;;;;;4996202;28;20113;-72
2021/04/03 12:47:07;;;;;;;9.13;1.52;;;20.40;33.20;;;;;;4996035;28;20022;-72
2021/04/03 12:49:33;;;;;;;3.33;1.33;;;20.50;30.70;;;;;;4994968;28;20042;-72
2021/04/03 12:52:00;;;;;;;4.75;1.63;;;20.40;30.00;;;;;;4996200;28;20026;-71